sensor_id;sensor_type;location;lat;lon;timestamp;temperature;humidity
484;DHT22;228;48.922;12.198;2023-04-25T04:02:45;11.30;61.70
484;DHT22;228;48.922;12.198;2023-04-25T04:05:12;11.30;62.00
484;DHT22;228;48.922;12.198;2023-04-25T04:07:44;11.40;61.20
484;DHT22;228;48.922;12.198;2023-04-25T04:10:12;11.60;60.80
484;DHT22;228;48.922;12.198;2023-04-25T04:12:39;11.70;59.90
484;DHT22;228;48.922;12.198;2023-04-25T04:15:06;11.90;60.00
484;DHT22;228;48.922;12.198;2023-04-25T04:17:33;12.00;59.90
484;DHT22;228;48.922;12.198;2023-04-25T04:20:01;12.30;59.40
484;DHT22;228;48.922;12.198;2023-04-25T04:22:30;12.40;59.10
484;DHT22;228;48.922;12.198;2023-04-25T04:25:00;12.60;58.10
484;DHT22;228;48.922;12.198;2023-04-25T04:27:50;12.60;57.70
484;DHT22;228;48.922;12.198;2023-04-25T04:30:35;12.70;57.70
484;DHT22;228;48.922;12.198;2023-04-25T04:33:07;12.70;57.70
484;DHT22;228;48.922;12.198;2023-04-25T04:35:33;12.80;57.30
484;DHT22;228;48.922;12.198;2023-04-25T04:38:00;12.70;57.80
484;DHT22;228;48.922;12.198;2023-04-25T04:40:30;12.80;57.50
484;DHT22;228;48.922;12.198;2023-04-25T04:43:07;12.90;58.10
484;DHT22;228;48.922;12.198;2023-04-25T04:46:09;12.80;58.10
484;DHT22;228;48.922;12.198;2023-04-25T04:48:54;12.60;58.30
484;DHT22;228;48.922;12.198;2023-04-25T04:51:42;12.40;59.40
484;DHT22;228;48.922;12.198;2023-04-25T04:54:28;11.80;59.80
484;DHT22;228;48.922;12.198;2023-04-25T04:57:21;11.20;61.30
484;DHT22;228;48.922;12.198;2023-04-25T05:00:11;10.40;65.10
484;DHT22;228;48.922;12.198;2023-04-25T05:02:54;9.70;69.60
484;DHT22;228;48.922;12.198;2023-04-25T05:05:48;9.50;70.70
484;DHT22;228;48.922;12.198;2023-04-25T05:08:26;9.30;72.40
484;DHT22;228;48.922;12.198;2023-04-25T05:11:03;9.00;73.30
484;DHT22;228;48.922;12.198;2023-04-25T05:14:02;9.00;73.40
484;DHT22;228;48.922;12.198;2023-04-25T05:16:46;9.30;73.20
484;DHT22;228;48.922;12.198;2023-04-25T05:19:35;9.30;72.80
484;DHT22;228;48.922;12.198;2023-04-25T05:22:22;9.50;72.70
484;DHT22;228;48.922;12.198;2023-04-25T05:25:07;9.80;72.10
484;DHT22;228;48.922;12.198;2023-04-25T05:27:54;9.60;71.70
484;DHT22;228;48.922;12.198;2023-04-25T05:30:46;9.90;71.40
484;DHT22;228;48.922;12.198;2023-04-25T05:33:20;10.00;70.50
484;DHT22;228;48.922;12.198;2023-04-25T05:35:46;10.00;70.60
484;DHT22;228;48.922;12.198;2023-04-25T05:38:12;10.00;69.60
484;DHT22;228;48.922;12.198;2023-04-25T05:41:11;9.80;71.60
484;DHT22;228;48.922;12.198;2023-04-25T05:43:52;10.10;70.50
484;DHT22;228;48.922;12.198;2023-04-25T05:46:25;10.80;69.20
484;DHT22;228;48.922;12.198;2023-04-25T05:49:07;10.90;67.60
484;DHT22;228;48.922;12.198;2023-04-25T05:52:03;11.00;67.00
484;DHT22;228;48.922;12.198;2023-04-25T05:54:41;10.70;66.80
484;DHT22;228;48.922;12.198;2023-04-25T05:57:07;10.80;67.40
484;DHT22;228;48.922;12.198;2023-04-25T05:59:33;10.70;67.00
484;DHT22;228;48.922;12.198;2023-04-25T06:02:00;10.60;67.60
484;DHT22;228;48.922;12.198;2023-04-25T06:04:27;10.80;67.70
484;DHT22;228;48.922;12.198;2023-04-25T06:06:53;10.90;66.10
484;DHT22;228;48.922;12.198;2023-04-25T06:09:21;11.00;66.70
484;DHT22;228;48.922;12.198;2023-04-25T06:11:47;11.30;66.00
484;DHT22;228;48.922;12.198;2023-04-25T06:14:13;11.60;64.20
484;DHT22;228;48.922;12.198;2023-04-25T06:16:45;11.60;64.50
484;DHT22;228;48.922;12.198;2023-04-25T06:19:11;11.40;63.70
484;DHT22;228;48.922;12.198;2023-04-25T06:21:37;11.60;64.40
484;DHT22;228;48.922;12.198;2023-04-25T06:24:03;11.70;63.50
484;DHT22;228;48.922;12.198;2023-04-25T06:26:30;11.90;62.60
484;DHT22;228;48.922;12.198;2023-04-25T06:28:56;12.00;63.40
484;DHT22;228;48.922;12.198;2023-04-25T06:31:22;12.10;61.50
484;DHT22;228;48.922;12.198;2023-04-25T06:33:49;12.40;61.40
484;DHT22;228;48.922;12.198;2023-04-25T06:36:15;12.50;60.30
484;DHT22;228;48.922;12.198;2023-04-25T06:38:44;12.90;59.40
484;DHT22;228;48.922;12.198;2023-04-25T06:41:10;12.70;59.60
484;DHT22;228;48.922;12.198;2023-04-25T06:43:36;12.60;59.80
484;DHT22;228;48.922;12.198;2023-04-25T06:46:14;12.70;60.20
484;DHT22;228;48.922;12.198;2023-04-25T09:03:57;12.30;61.90
484;DHT22;228;48.922;12.198;2023-04-25T09:06:24;12.80;61.30
484;DHT22;228;48.922;12.198;2023-04-25T09:08:50;13.20;58.30
484;DHT22;228;48.922;12.198;2023-04-25T09:11:16;14.10;57.70
484;DHT22;228;48.922;12.198;2023-04-25T09:13:43;14.20;55.90
484;DHT22;228;48.922;12.198;2023-04-25T09:16:21;14.70;57.10
484;DHT22;228;48.922;12.198;2023-04-25T09:19:06;15.00;53.30
484;DHT22;228;48.922;12.198;2023-04-25T09:21:34;14.60;53.90
484;DHT22;228;48.922;12.198;2023-04-25T09:24:00;14.40;55.40
484;DHT22;228;48.922;12.198;2023-04-25T09:26:27;13.80;54.80
484;DHT22;228;48.922;12.198;2023-04-25T09:29:08;13.40;55.90
484;DHT22;228;48.922;12.198;2023-04-25T09:31:38;13.00;55.80
484;DHT22;228;48.922;12.198;2023-04-25T09:34:06;12.60;56.40
484;DHT22;228;48.922;12.198;2023-04-25T09:36:41;12.20;58.00
484;DHT22;228;48.922;12.198;2023-04-25T09:39:28;11.90;61.40
484;DHT22;228;48.922;12.198;2023-04-25T09:42:03;10.80;67.60
484;DHT22;228;48.922;12.198;2023-04-25T09:44:32;9.60;75.00
484;DHT22;228;48.922;12.198;2023-04-25T09:46:58;8.70;79.60
484;DHT22;228;48.922;12.198;2023-04-25T09:49:26;8.30;81.50
484;DHT22;228;48.922;12.198;2023-04-25T09:52:03;8.40;83.00
484;DHT22;228;48.922;12.198;2023-04-25T09:54:36;9.10;83.80
484;DHT22;228;48.922;12.198;2023-04-25T09:57:13;9.50;82.10
484;DHT22;228;48.922;12.198;2023-04-25T09:59:46;10.00;80.30
484;DHT22;228;48.922;12.198;2023-04-25T10:02:24;10.30;78.40
484;DHT22;228;48.922;12.198;2023-04-25T10:04:55;10.80;78.20
484;DHT22;228;48.922;12.198;2023-04-25T10:07:30;11.00;77.50
484;DHT22;228;48.922;12.198;2023-04-25T10:10:04;11.50;80.70
484;DHT22;228;48.922;12.198;2023-04-25T10:12:36;12.10;76.80
484;DHT22;228;48.922;12.198;2023-04-25T10:15:03;12.40;77.40
484;DHT22;228;48.922;12.198;2023-04-25T10:17:30;12.00;75.30
484;DHT22;228;48.922;12.198;2023-04-25T10:19:57;11.60;72.60
484;DHT22;228;48.922;12.198;2023-04-25T10:22:36;11.40;71.10
484;DHT22;228;48.922;12.198;2023-04-25T10:25:06;11.60;71.10
484;DHT22;228;48.922;12.198;2023-04-25T10:27:34;11.60;69.80
484;DHT22;228;48.922;12.198;2023-04-25T10:30:08;12.00;73.20
484;DHT22;228;48.922;12.198;2023-04-25T10:32:38;12.20;71.80
484;DHT22;228;48.922;12.198;2023-04-25T10:35:15;12.70;70.80
484;DHT22;228;48.922;12.198;2023-04-25T10:38:11;12.60;65.10
484;DHT22;228;48.922;12.198;2023-04-25T10:40:39;12.60;66.20
484;DHT22;228;48.922;12.198;2023-04-25T10:45:59;13.80;63.00
484;DHT22;228;48.922;12.198;2023-04-25T10:48:26;14.70;60.80
484;DHT22;228;48.922;12.198;2023-04-25T10:51:09;15.40;58.10
484;DHT22;228;48.922;12.198;2023-04-25T10:53:36;15.80;56.00
484;DHT22;228;48.922;12.198;2023-04-25T10:56:17;14.70;54.90
484;DHT22;228;48.922;12.198;2023-04-25T10:58:47;14.00;57.50
484;DHT22;228;48.922;12.198;2023-04-25T11:01:15;13.90;60.20
484;DHT22;228;48.922;12.198;2023-04-25T11:03:46;14.10;59.80
484;DHT22;228;48.922;12.198;2023-04-25T11:09:18;13.50;60.90
484;DHT22;228;48.922;12.198;2023-04-25T11:11:56;13.00;61.20
484;DHT22;228;48.922;12.198;2023-04-25T11:14:24;12.90;65.30
484;DHT22;228;48.922;12.198;2023-04-25T11:16:54;13.60;62.60
484;DHT22;228;48.922;12.198;2023-04-25T11:19:25;14.20;59.10
484;DHT22;228;48.922;12.198;2023-04-25T11:22:13;15.00;58.40
484;DHT22;228;48.922;12.198;2023-04-25T11:24:39;16.70;53.60
484;DHT22;228;48.922;12.198;2023-04-25T11:27:05;16.50;51.60
484;DHT22;228;48.922;12.198;2023-04-25T11:29:33;17.50;51.10
484;DHT22;228;48.922;12.198;2023-04-25T11:32:00;17.60;49.70
484;DHT22;228;48.922;12.198;2023-04-25T11:34:27;16.90;50.30
484;DHT22;228;48.922;12.198;2023-04-25T11:36:57;16.10;49.90
484;DHT22;228;48.922;12.198;2023-04-25T11:39:29;15.90;51.80
484;DHT22;228;48.922;12.198;2023-04-25T11:41:56;15.60;50.40
484;DHT22;228;48.922;12.198;2023-04-25T11:44:22;14.90;51.40
484;DHT22;228;48.922;12.198;2023-04-25T11:46:48;14.70;51.10
484;DHT22;228;48.922;12.198;2023-04-25T11:49:15;14.10;50.80
484;DHT22;228;48.922;12.198;2023-04-25T11:51:48;13.60;52.80
484;DHT22;228;48.922;12.198;2023-04-25T11:54:15;13.40;53.50
484;DHT22;228;48.922;12.198;2023-04-25T11:56:44;13.40;53.90
484;DHT22;228;48.922;12.198;2023-04-25T11:59:13;13.60;52.10
484;DHT22;228;48.922;12.198;2023-04-25T12:01:41;14.80;49.10
484;DHT22;228;48.922;12.198;2023-04-25T12:04:18;16.30;43.70
484;DHT22;228;48.922;12.198;2023-04-25T12:06:49;17.50;40.10
484;DHT22;228;48.922;12.198;2023-04-25T12:09:31;19.50;39.20
484;DHT22;228;48.922;12.198;2023-04-25T12:12:03;18.30;40.40
484;DHT22;228;48.922;12.198;2023-04-25T12:14:34;18.30;40.70
484;DHT22;228;48.922;12.198;2023-04-25T12:17:04;18.90;39.70
484;DHT22;228;48.922;12.198;2023-04-25T12:19:36;18.70;41.00
484;DHT22;228;48.922;12.198;2023-04-25T12:22:22;18.90;38.40
484;DHT22;228;48.922;12.198;2023-04-25T12:24:50;19.50;37.20
484;DHT22;228;48.922;12.198;2023-04-25T12:27:45;18.60;39.50
484;DHT22;228;48.922;12.198;2023-04-25T12:30:15;18.50;37.30
484;DHT22;228;48.922;12.198;2023-04-25T12:32:42;17.90;39.50
484;DHT22;228;48.922;12.198;2023-04-25T12:35:09;17.30;37.90
484;DHT22;228;48.922;12.198;2023-04-25T12:37:39;16.70;39.80
484;DHT22;228;48.922;12.198;2023-04-25T12:40:23;15.90;43.40
484;DHT22;228;48.922;12.198;2023-04-25T12:42:52;15.70;46.20
484;DHT22;228;48.922;12.198;2023-04-25T12:45:49;17.30;40.70
484;DHT22;228;48.922;12.198;2023-04-25T12:48:26;20.80;35.00
484;DHT22;228;48.922;12.198;2023-04-25T12:51:29;23.30;30.50
484;DHT22;228;48.922;12.198;2023-04-25T12:54:25;21.60;31.70
484;DHT22;228;48.922;12.198;2023-04-25T12:56:53;18.70;37.80
484;DHT22;228;48.922;12.198;2023-04-25T12:59:25;17.10;39.90
484;DHT22;228;48.922;12.198;2023-04-25T13:02:15;15.60;42.30
484;DHT22;228;48.922;12.198;2023-04-25T13:05:21;14.30;45.70
484;DHT22;228;48.922;12.198;2023-04-25T13:08:03;13.70;47.10
484;DHT22;228;48.922;12.198;2023-04-25T13:10:31;13.60;47.50
484;DHT22;228;48.922;12.198;2023-04-25T13:13:03;13.80;47.60
484;DHT22;228;48.922;12.198;2023-04-25T13:15:29;14.10;46.20
484;DHT22;228;48.922;12.198;2023-04-25T13:17:55;14.40;46.80
484;DHT22;228;48.922;12.198;2023-04-25T13:20:21;14.70;43.70
484;DHT22;228;48.922;12.198;2023-04-25T13:22:48;14.90;42.70
484;DHT22;228;48.922;12.198;2023-04-25T13:25:17;15.50;44.10
484;DHT22;228;48.922;12.198;2023-04-25T13:27:43;16.30;43.60
484;DHT22;228;48.922;12.198;2023-04-25T13:30:11;16.70;41.00
484;DHT22;228;48.922;12.198;2023-04-25T13:32:38;17.40;39.90
484;DHT22;228;48.922;12.198;2023-04-25T13:35:08;18.10;38.50
484;DHT22;228;48.922;12.198;2023-04-25T13:37:39;18.30;37.80
484;DHT22;228;48.922;12.198;2023-04-25T13:40:10;17.80;35.80
484;DHT22;228;48.922;12.198;2023-04-25T13:42:51;16.90;40.10
484;DHT22;228;48.922;12.198;2023-04-25T13:45:35;15.80;40.40
484;DHT22;228;48.922;12.198;2023-04-25T13:48:07;15.70;42.40
484;DHT22;228;48.922;12.198;2023-04-25T13:50:57;15.20;43.00
484;DHT22;228;48.922;12.198;2023-04-25T13:53:23;15.10;44.40
484;DHT22;228;48.922;12.198;2023-04-25T13:55:50;14.40;46.60
484;DHT22;228;48.922;12.198;2023-04-25T13:58:16;14.50;46.70
484;DHT22;228;48.922;12.198;2023-04-25T14:00:43;14.60;46.60
484;DHT22;228;48.922;12.198;2023-04-25T14:03:12;14.50;46.60
484;DHT22;228;48.922;12.198;2023-04-25T14:05:38;14.30;47.70
484;DHT22;228;48.922;12.198;2023-04-25T14:08:11;15.30;46.60
484;DHT22;228;48.922;12.198;2023-04-25T14:10:37;15.80;44.20
484;DHT22;228;48.922;12.198;2023-04-25T14:13:06;15.30;42.60
484;DHT22;228;48.922;12.198;2023-04-25T14:15:33;14.80;44.50
484;DHT22;228;48.922;12.198;2023-04-25T14:18:00;14.90;44.80
484;DHT22;228;48.922;12.198;2023-04-25T14:20:31;14.50;45.60
484;DHT22;228;48.922;12.198;2023-04-25T14:23:00;14.60;48.80
484;DHT22;228;48.922;12.198;2023-04-25T14:25:27;16.40;47.10
484;DHT22;228;48.922;12.198;2023-04-25T14:28:19;19.40;40.80
484;DHT22;228;48.922;12.198;2023-04-25T14:30:46;19.70;36.30
484;DHT22;228;48.922;12.198;2023-04-25T14:33:13;17.40;40.20
484;DHT22;228;48.922;12.198;2023-04-25T14:35:39;15.60;44.30
484;DHT22;228;48.922;12.198;2023-04-25T14:38:08;15.00;44.20
484;DHT22;228;48.922;12.198;2023-04-25T14:40:35;14.60;45.40
484;DHT22;228;48.922;12.198;2023-04-25T14:43:01;14.40;46.60
484;DHT22;228;48.922;12.198;2023-04-25T14:45:29;14.70;48.30
484;DHT22;228;48.922;12.198;2023-04-25T14:48:08;14.60;46.70
484;DHT22;228;48.922;12.198;2023-04-25T14:51:13;14.30;46.00
484;DHT22;228;48.922;12.198;2023-04-25T14:53:42;14.20;44.50
484;DHT22;228;48.922;12.198;2023-04-25T14:56:28;15.10;45.70
484;DHT22;228;48.922;12.198;2023-04-25T14:58:57;16.20;42.30
484;DHT22;228;48.922;12.198;2023-04-25T15:01:28;17.50;38.90
484;DHT22;228;48.922;12.198;2023-04-25T15:03:55;17.50;40.80
484;DHT22;228;48.922;12.198;2023-04-25T15:06:22;16.60;40.30
484;DHT22;228;48.922;12.198;2023-04-25T15:08:52;15.80;42.70
484;DHT22;228;48.922;12.198;2023-04-25T15:11:34;15.20;44.00
484;DHT22;228;48.922;12.198;2023-04-25T15:14:03;14.30;44.30
484;DHT22;228;48.922;12.198;2023-04-25T15:16:31;13.80;44.80
484;DHT22;228;48.922;12.198;2023-04-25T15:18:57;14.80;41.30
484;DHT22;228;48.922;12.198;2023-04-25T15:21:24;14.50;40.90
484;DHT22;228;48.922;12.198;2023-04-25T15:23:52;14.00;43.20
484;DHT22;228;48.922;12.198;2023-04-25T15:26:22;13.90;45.00
484;DHT22;228;48.922;12.198;2023-04-25T15:28:50;14.00;45.00
484;DHT22;228;48.922;12.198;2023-04-25T15:31:20;13.60;44.90
484;DHT22;228;48.922;12.198;2023-04-25T15:33:53;13.90;45.50
484;DHT22;228;48.922;12.198;2023-04-25T15:36:21;14.20;45.30
484;DHT22;228;48.922;12.198;2023-04-25T15:41:46;14.10;46.00
484;DHT22;228;48.922;12.198;2023-04-25T15:44:15;13.80;44.50
484;DHT22;228;48.922;12.198;2023-04-25T15:46:46;13.40;45.90
484;DHT22;228;48.922;12.198;2023-04-25T15:49:37;14.10;46.50
484;DHT22;228;48.922;12.198;2023-04-25T15:52:04;16.80;41.00
484;DHT22;228;48.922;12.198;2023-04-25T15:54:58;16.80;40.90
484;DHT22;228;48.922;12.198;2023-04-25T15:57:29;16.00;43.20
484;DHT22;228;48.922;12.198;2023-04-25T16:00:00;17.30;38.10
484;DHT22;228;48.922;12.198;2023-04-25T16:02:57;17.40;37.20
484;DHT22;228;48.922;12.198;2023-04-25T16:05:23;15.50;39.70
484;DHT22;228;48.922;12.198;2023-04-25T16:07:51;15.60;40.00
484;DHT22;228;48.922;12.198;2023-04-25T16:10:18;14.90;42.00
484;DHT22;228;48.922;12.198;2023-04-25T16:12:46;14.00;42.60
484;DHT22;228;48.922;12.198;2023-04-25T16:15:14;13.20;45.40
484;DHT22;228;48.922;12.198;2023-04-25T16:17:41;12.90;46.90
484;DHT22;228;48.922;12.198;2023-04-25T16:20:08;12.50;47.50
484;DHT22;228;48.922;12.198;2023-04-25T16:22:41;12.40;49.60
484;DHT22;228;48.922;12.198;2023-04-25T16:25:08;12.20;49.10
484;DHT22;228;48.922;12.198;2023-04-25T16:27:35;12.20;49.50
484;DHT22;228;48.922;12.198;2023-04-25T16:30:06;12.10;49.00
484;DHT22;228;48.922;12.198;2023-04-25T16:32:34;12.00;49.30
484;DHT22;228;48.922;12.198;2023-04-25T16:35:00;12.20;49.40
484;DHT22;228;48.922;12.198;2023-04-25T16:37:26;12.10;49.30
484;DHT22;228;48.922;12.198;2023-04-25T16:39:52;11.90;50.10
484;DHT22;228;48.922;12.198;2023-04-25T16:42:18;11.90;50.10
484;DHT22;228;48.922;12.198;2023-04-25T16:44:46;12.00;50.70
484;DHT22;228;48.922;12.198;2023-04-25T16:47:12;12.00;49.20
484;DHT22;228;48.922;12.198;2023-04-25T16:49:39;12.10;49.50
484;DHT22;228;48.922;12.198;2023-04-25T16:52:05;12.10;48.70
484;DHT22;228;48.922;12.198;2023-04-25T16:54:31;12.20;49.20
484;DHT22;228;48.922;12.198;2023-04-25T16:56:57;12.20;49.30
484;DHT22;228;48.922;12.198;2023-04-25T16:59:24;12.10;49.40
484;DHT22;228;48.922;12.198;2023-04-25T17:01:50;11.90;49.00
484;DHT22;228;48.922;12.198;2023-04-25T17:04:16;11.80;49.10
484;DHT22;228;48.922;12.198;2023-04-25T17:06:43;12.00;49.50
484;DHT22;228;48.922;12.198;2023-04-25T17:09:14;12.00;49.70
484;DHT22;228;48.922;12.198;2023-04-25T17:11:42;11.80;49.70
484;DHT22;228;48.922;12.198;2023-04-25T17:14:08;11.70;49.70
484;DHT22;228;48.922;12.198;2023-04-25T17:16:38;11.70;50.20
484;DHT22;228;48.922;12.198;2023-04-25T17:19:05;11.60;50.00
484;DHT22;228;48.922;12.198;2023-04-25T17:21:32;11.50;50.60
484;DHT22;228;48.922;12.198;2023-04-25T17:23:58;11.50;50.50
484;DHT22;228;48.922;12.198;2023-04-25T17:26:25;11.50;50.30
484;DHT22;228;48.922;12.198;2023-04-25T17:28:53;11.50;51.30
484;DHT22;228;48.922;12.198;2023-04-25T17:31:20;11.60;50.70
484;DHT22;228;48.922;12.198;2023-04-25T17:33:48;11.60;50.20
484;DHT22;228;48.922;12.198;2023-04-25T17:36:15;11.70;51.10
484;DHT22;228;48.922;12.198;2023-04-25T17:38:43;11.60;50.90
484;DHT22;228;48.922;12.198;2023-04-25T17:41:09;11.60;49.90
484;DHT22;228;48.922;12.198;2023-04-25T17:43:35;11.50;49.70
484;DHT22;228;48.922;12.198;2023-04-25T17:46:02;11.40;49.30
484;DHT22;228;48.922;12.198;2023-04-25T17:48:28;11.30;49.90
484;DHT22;228;48.922;12.198;2023-04-25T17:50:56;11.60;50.50
484;DHT22;228;48.922;12.198;2023-04-25T17:53:23;11.50;49.60
484;DHT22;228;48.922;12.198;2023-04-25T17:55:50;11.50;50.20
484;DHT22;228;48.922;12.198;2023-04-25T17:58:17;11.40;50.10
484;DHT22;228;48.922;12.198;2023-04-25T18:00:44;11.30;51.10
484;DHT22;228;48.922;12.198;2023-04-25T18:03:11;11.00;50.80
484;DHT22;228;48.922;12.198;2023-04-25T18:05:37;10.70;50.70
484;DHT22;228;48.922;12.198;2023-04-25T18:08:04;10.60;51.70
484;DHT22;228;48.922;12.198;2023-04-25T18:10:31;10.40;51.80
484;DHT22;228;48.922;12.198;2023-04-25T18:12:59;10.40;53.30
484;DHT22;228;48.922;12.198;2023-04-25T18:15:25;10.30;53.70
484;DHT22;228;48.922;12.198;2023-04-25T18:17:51;10.30;53.50
484;DHT22;228;48.922;12.198;2023-04-25T18:20:18;10.40;54.10
484;DHT22;228;48.922;12.198;2023-04-25T18:22:45;10.40;54.60
484;DHT22;228;48.922;12.198;2023-04-25T18:25:11;10.50;53.90
484;DHT22;228;48.922;12.198;2023-04-25T18:27:39;10.50;54.40
484;DHT22;228;48.922;12.198;2023-04-25T18:30:10;10.70;54.50
484;DHT22;228;48.922;12.198;2023-04-25T18:32:37;10.80;53.90
484;DHT22;228;48.922;12.198;2023-04-25T18:35:03;10.80;54.10
484;DHT22;228;48.922;12.198;2023-04-25T18:37:31;10.40;54.20
484;DHT22;228;48.922;12.198;2023-04-25T18:39:57;10.50;54.70
484;DHT22;228;48.922;12.198;2023-04-25T18:42:24;10.70;54.10
484;DHT22;228;48.922;12.198;2023-04-25T18:44:51;10.50;54.20
484;DHT22;228;48.922;12.198;2023-04-25T18:47:17;10.60;52.80
484;DHT22;228;48.922;12.198;2023-04-25T18:49:44;10.70;53.80
484;DHT22;228;48.922;12.198;2023-04-25T18:52:10;10.80;54.30
484;DHT22;228;48.922;12.198;2023-04-25T18:54:39;10.50;55.00
484;DHT22;228;48.922;12.198;2023-04-25T18:57:05;10.50;55.60
484;DHT22;228;48.922;12.198;2023-04-25T18:59:32;10.50;55.30
484;DHT22;228;48.922;12.198;2023-04-25T19:01:58;10.80;55.90
484;DHT22;228;48.922;12.198;2023-04-25T19:04:27;11.00;54.80
484;DHT22;228;48.922;12.198;2023-04-25T19:06:53;11.20;55.00
484;DHT22;228;48.922;12.198;2023-04-25T19:09:20;11.20;54.70
484;DHT22;228;48.922;12.198;2023-04-25T19:11:47;11.20;54.80
484;DHT22;228;48.922;12.198;2023-04-25T19:14:14;11.40;54.20
484;DHT22;228;48.922;12.198;2023-04-25T19:16:40;11.50;54.20
484;DHT22;228;48.922;12.198;2023-04-25T19:19:07;11.50;54.00
484;DHT22;228;48.922;12.198;2023-04-25T19:21:34;11.60;54.40
484;DHT22;228;48.922;12.198;2023-04-25T19:24:04;11.50;53.90
484;DHT22;228;48.922;12.198;2023-04-25T19:26:31;11.70;53.50
484;DHT22;228;48.922;12.198;2023-04-25T19:29:09;11.70;53.10
484;DHT22;228;48.922;12.198;2023-04-25T19:31:38;11.60;53.20
484;DHT22;228;48.922;12.198;2023-04-25T19:34:06;11.50;54.60
484;DHT22;228;48.922;12.198;2023-04-25T19:36:32;11.50;55.00
484;DHT22;228;48.922;12.198;2023-04-25T19:38:59;11.80;54.90
484;DHT22;228;48.922;12.198;2023-04-25T19:41:38;11.80;54.80
484;DHT22;228;48.922;12.198;2023-04-25T19:44:07;11.90;55.30
484;DHT22;228;48.922;12.198;2023-04-25T19:46:34;11.80;55.10
484;DHT22;228;48.922;12.198;2023-04-25T19:49:01;11.80;55.00
484;DHT22;228;48.922;12.198;2023-04-25T19:51:28;11.80;54.50
484;DHT22;228;48.922;12.198;2023-04-25T19:53:55;11.90;54.50
484;DHT22;228;48.922;12.198;2023-04-25T19:56:22;11.90;53.40
484;DHT22;228;48.922;12.198;2023-04-25T19:58:49;12.00;53.20
484;DHT22;228;48.922;12.198;2023-04-25T20:01:16;12.00;53.20
484;DHT22;228;48.922;12.198;2023-04-25T20:03:42;12.10;53.10
484;DHT22;228;48.922;12.198;2023-04-25T20:06:09;12.00;53.90
484;DHT22;228;48.922;12.198;2023-04-25T20:08:37;12.00;54.40
484;DHT22;228;48.922;12.198;2023-04-25T20:11:03;12.10;53.70
484;DHT22;228;48.922;12.198;2023-04-25T20:13:36;12.30;53.70
484;DHT22;228;48.922;12.198;2023-04-25T20:16:04;12.40;53.40
484;DHT22;228;48.922;12.198;2023-04-25T20:18:31;12.40;53.40
484;DHT22;228;48.922;12.198;2023-04-25T20:21:05;12.40;53.90
484;DHT22;228;48.922;12.198;2023-04-25T20:23:36;12.20;53.00
484;DHT22;228;48.922;12.198;2023-04-25T20:26:10;12.10;53.10
484;DHT22;228;48.922;12.198;2023-04-25T20:28:41;12.00;54.60
484;DHT22;228;48.922;12.198;2023-04-25T20:31:13;12.00;52.80
484;DHT22;228;48.922;12.198;2023-04-25T20:33:40;12.00;53.50
484;DHT22;228;48.922;12.198;2023-04-25T20:36:08;11.90;53.90
484;DHT22;228;48.922;12.198;2023-04-25T20:38:34;11.70;55.40
484;DHT22;228;48.922;12.198;2023-04-25T20:41:00;11.70;56.10
484;DHT22;228;48.922;12.198;2023-04-25T20:43:27;11.70;55.70
484;DHT22;228;48.922;12.198;2023-04-25T20:45:53;11.60;55.40
484;DHT22;228;48.922;12.198;2023-04-25T20:48:20;11.50;53.90
484;DHT22;228;48.922;12.198;2023-04-25T20:50:46;11.40;55.80
484;DHT22;228;48.922;12.198;2023-04-25T20:53:13;11.20;57.40
484;DHT22;228;48.922;12.198;2023-04-25T20:55:45;11.20;57.40
484;DHT22;228;48.922;12.198;2023-04-25T20:58:12;11.20;58.90
484;DHT22;228;48.922;12.198;2023-04-25T21:00:42;11.00;58.60
484;DHT22;228;48.922;12.198;2023-04-25T21:03:13;10.90;58.40
484;DHT22;228;48.922;12.198;2023-04-25T21:05:44;10.90;58.50
484;DHT22;228;48.922;12.198;2023-04-25T21:08:18;10.90;58.60
484;DHT22;228;48.922;12.198;2023-04-25T21:10:44;11.00;58.10
484;DHT22;228;48.922;12.198;2023-04-25T21:13:11;11.00;56.00
